sensor_id;sensor_type;location;lat;lon;timestamp;pressure;altitude;pressure_sealevel;temperature;humidity
70343;BME280;57767;42.068;24.752;2022-12-07T00:00:20;99055.47;;;5.72;77.52
70343;BME280;57767;42.068;24.752;2022-12-07T00:01:33;99055.47;;;5.72;77.83
70343;BME280;57767;42.068;24.752;2022-12-07T00:02:35;99058.75;;;5.74;77.22
70343;BME280;57767;42.068;24.752;2022-12-07T00:03:38;99051.22;;;5.71;76.99
70343;BME280;57767;42.068;24.752;2022-12-07T00:04:40;99054.81;;;5.70;77.52
70343;BME280;57767;42.068;24.752;2022-12-07T00:05:41;99054.66;;;5.72;77.04
70343;BME280;57767;42.068;24.752;2022-12-07T00:06:46;99063.06;;;5.67;77.65
70343;BME280;57767;42.068;24.752;2022-12-07T00:07:49;99059.94;;;5.64;77.71
70343;BME280;57767;42.068;24.752;2022-12-07T00:08:50;99046.38;;;5.60;77.45
70343;BME280;57767;42.068;24.752;2022-12-07T00:09:52;99056.19;;;5.58;77.43
70343;BME280;57767;42.068;24.752;2022-12-07T00:10:54;99058.66;;;5.60;77.94
70343;BME280;57767;42.068;24.752;2022-12-07T00:11:55;99056.69;;;5.62;77.32
70343;BME280;57767;42.068;24.752;2022-12-07T00:12:57;99046.69;;;5.57;77.42
70343;BME280;57767;42.068;24.752;2022-12-07T00:14:01;99058.78;;;5.66;76.97
70343;BME280;57767;42.068;24.752;2022-12-07T00:15:03;99058.78;;;5.66;77.14
70343;BME280;57767;42.068;24.752;2022-12-07T00:16:11;99055.34;;;5.66;77.55
70343;BME280;57767;42.068;24.752;2022-12-07T00:17:13;99057.31;;;5.64;77.33
70343;BME280;57767;42.068;24.752;2022-12-07T00:18:15;99051.59;;;5.60;77.47
70343;BME280;57767;42.068;24.752;2022-12-07T00:19:17;99055.22;;;5.59;77.78
70343;BME280;57767;42.068;24.752;2022-12-07T00:20:19;99059.63;;;5.59;78.24
70343;BME280;57767;42.068;24.752;2022-12-07T00:21:29;99055.91;;;5.53;78.15
70343;BME280;57767;42.068;24.752;2022-12-07T00:22:31;99051.16;;;5.57;77.86
70343;BME280;57767;42.068;24.752;2022-12-07T00:23:33;99056.84;;;5.60;78.28
70343;BME280;57767;42.068;24.752;2022-12-07T00:24:35;99053.94;;;5.55;77.99
70343;BME280;57767;42.068;24.752;2022-12-07T00:25:37;99053.94;;;5.55;78.08
70343;BME280;57767;42.068;24.752;2022-12-07T00:26:40;99055.75;;;5.47;77.87
70343;BME280;57767;42.068;24.752;2022-12-07T00:27:42;99051.88;;;5.43;78.68
70343;BME280;57767;42.068;24.752;2022-12-07T00:29:13;99057.41;;;5.48;78.80
70343;BME280;57767;42.068;24.752;2022-12-07T00:30:13;99057.88;;;5.51;78.78
70343;BME280;57767;42.068;24.752;2022-12-07T00:31:16;99056.06;;;5.52;78.10
70343;BME280;57767;42.068;24.752;2022-12-07T00:32:19;99060.16;;;5.54;78.07
70343;BME280;57767;42.068;24.752;2022-12-07T00:33:20;99061.16;;;5.53;77.99
70343;BME280;57767;42.068;24.752;2022-12-07T00:34:22;99052.31;;;5.46;78.13
70343;BME280;57767;42.068;24.752;2022-12-07T00:35:24;99057.19;;;5.57;78.61
70343;BME280;57767;42.068;24.752;2022-12-07T00:36:26;99055.38;;;5.58;78.27
70343;BME280;57767;42.068;24.752;2022-12-07T00:37:28;99059.28;;;5.62;77.98
70343;BME280;57767;42.068;24.752;2022-12-07T00:38:31;99066.16;;;5.63;78.06
70343;BME280;57767;42.068;24.752;2022-12-07T00:39:33;99054.22;;;5.60;78.72
70343;BME280;57767;42.068;24.752;2022-12-07T00:40:35;99049.53;;;5.56;78.23
70343;BME280;57767;42.068;24.752;2022-12-07T00:41:36;99057.31;;;5.64;78.64
70343;BME280;57767;42.068;24.752;2022-12-07T00:42:38;99057.97;;;5.66;78.40
70343;BME280;57767;42.068;24.752;2022-12-07T00:43:41;99051.78;;;5.59;78.46
70343;BME280;57767;42.068;24.752;2022-12-07T00:44:42;99055.22;;;5.59;78.18
70343;BME280;57767;42.068;24.752;2022-12-07T00:45:44;99058.16;;;5.64;78.28
70343;BME280;57767;42.068;24.752;2022-12-07T00:46:46;99053.72;;;5.65;78.51
70343;BME280;57767;42.068;24.752;2022-12-07T00:47:47;99051.75;;;5.67;78.28
70343;BME280;57767;42.068;24.752;2022-12-07T00:48:50;99054.38;;;5.67;78.03
70343;BME280;57767;42.068;24.752;2022-12-07T00:49:52;99049.59;;;5.70;77.90
70343;BME280;57767;42.068;24.752;2022-12-07T00:50:54;99052.41;;;5.69;78.13
70343;BME280;57767;42.068;24.752;2022-12-07T00:51:56;99054.88;;;5.62;78.05
70343;BME280;57767;42.068;24.752;2022-12-07T00:52:57;99051.28;;;5.63;78.19
70343;BME280;57767;42.068;24.752;2022-12-07T00:53:59;99054.00;;;5.70;77.72
70343;BME280;57767;42.068;24.752;2022-12-07T00:55:01;99047.78;;;5.71;77.81
70343;BME280;57767;42.068;24.752;2022-12-07T00:56:11;99045.81;;;5.73;77.60
70343;BME280;57767;42.068;24.752;2022-12-07T00:57:13;99054.66;;;5.72;78.08
70343;BME280;57767;42.068;24.752;2022-12-07T00:58:15;99050.59;;;5.69;78.10
70343;BME280;57767;42.068;24.752;2022-12-07T00:59:17;99041.59;;;5.64;77.62
70343;BME280;57767;42.068;24.752;2022-12-07T01:00:19;99061.06;;;5.69;78.14
70343;BME280;57767;42.068;24.752;2022-12-07T01:01:20;99052.41;;;5.69;78.07
70343;BME280;57767;42.068;24.752;2022-12-07T01:02:23;99054.81;;;5.70;78.04
70343;BME280;57767;42.068;24.752;2022-12-07T01:03:24;99058.16;;;5.64;78.15
70343;BME280;57767;42.068;24.752;2022-12-07T01:04:26;99052.09;;;5.64;78.29
70343;BME280;57767;42.068;24.752;2022-12-07T01:05:28;99056.34;;;5.65;78.42
70343;BME280;57767;42.068;24.752;2022-12-07T01:06:30;99042.94;;;5.60;78.00
70343;BME280;57767;42.068;24.752;2022-12-07T01:07:32;99048.81;;;5.62;77.88
70343;BME280;57767;42.068;24.752;2022-12-07T01:08:34;99035.44;;;5.57;78.32
70343;BME280;57767;42.068;24.752;2022-12-07T01:09:35;99036.06;;;5.59;78.44
70343;BME280;57767;42.068;24.752;2022-12-07T01:10:37;99046.03;;;5.63;78.17
70343;BME280;57767;42.068;24.752;2022-12-07T01:11:39;99035.88;;;5.60;77.68
70343;BME280;57767;42.068;24.752;2022-12-07T01:12:41;99041.66;;;5.56;78.15
70343;BME280;57767;42.068;24.752;2022-12-07T01:13:43;99036.94;;;5.51;78.21
70343;BME280;57767;42.068;24.752;2022-12-07T01:14:45;99029.56;;;5.47;78.41
70343;BME280;57767;42.068;24.752;2022-12-07T01:15:47;99035.63;;;5.47;78.20
70343;BME280;57767;42.068;24.752;2022-12-07T01:16:49;99034.81;;;5.47;77.59
70343;BME280;57767;42.068;24.752;2022-12-07T01:17:50;99036.75;;;5.53;78.45
70343;BME280;57767;42.068;24.752;2022-12-07T01:18:54;99023.00;;;5.51;77.84
70343;BME280;57767;42.068;24.752;2022-12-07T01:19:55;99038.22;;;5.55;77.55
70343;BME280;57767;42.068;24.752;2022-12-07T01:21:02;99039.16;;;5.62;77.31
70343;BME280;57767;42.068;24.752;2022-12-07T01:22:04;99038.34;;;5.62;77.67
70343;BME280;57767;42.068;24.752;2022-12-07T01:23:06;99034.00;;;5.46;77.69
70343;BME280;57767;42.068;24.752;2022-12-07T01:24:10;99036.16;;;5.43;77.48
70343;BME280;57767;42.068;24.752;2022-12-07T01:25:12;99038.06;;;5.49;78.04
70343;BME280;57767;42.068;24.752;2022-12-07T01:26:17;99034.16;;;5.45;77.71
70343;BME280;57767;42.068;24.752;2022-12-07T01:27:19;99030.06;;;5.50;78.02
70343;BME280;57767;42.068;24.752;2022-12-07T01:28:21;99027.78;;;5.47;77.50
70343;BME280;57767;42.068;24.752;2022-12-07T01:29:22;99024.97;;;5.49;77.88
70343;BME280;57767;42.068;24.752;2022-12-07T01:30:24;99029.22;;;5.50;77.84
70343;BME280;57767;42.068;24.752;2022-12-07T01:31:27;99032.66;;;5.50;77.51
70343;BME280;57767;42.068;24.752;2022-12-07T01:32:29;99028.25;;;5.51;77.15
70343;BME280;57767;42.068;24.752;2022-12-07T01:33:34;99028.56;;;5.56;77.35
70343;BME280;57767;42.068;24.752;2022-12-07T01:34:36;99029.84;;;5.60;77.19
70343;BME280;57767;42.068;24.752;2022-12-07T01:35:38;99024.59;;;5.60;76.30
70343;BME280;57767;42.068;24.752;2022-12-07T01:36:40;99023.09;;;5.65;76.92
70343;BME280;57767;42.068;24.752;2022-12-07T01:37:41;99018.84;;;5.64;77.15
70343;BME280;57767;42.068;24.752;2022-12-07T01:38:44;99021.47;;;5.64;76.98
70343;BME280;57767;42.068;24.752;2022-12-07T01:39:50;99020.00;;;5.62;76.82
70343;BME280;57767;42.068;24.752;2022-12-07T01:40:56;99012.47;;;5.59;76.76
70343;BME280;57767;42.068;24.752;2022-12-07T01:41:58;99013.13;;;5.61;76.73
70343;BME280;57767;42.068;24.752;2022-12-07T01:42:59;99006.78;;;5.55;76.54
70343;BME280;57767;42.068;24.752;2022-12-07T01:45:41;99013.47;;;5.58;76.98
70343;BME280;57767;42.068;24.752;2022-12-07T01:46:46;99005.63;;;5.58;77.01
70343;BME280;57767;42.068;24.752;2022-12-07T01:47:53;99013.78;;;5.63;76.99
70343;BME280;57767;42.068;24.752;2022-12-07T01:48:56;99012.16;;;5.62;76.77
70343;BME280;57767;42.068;24.752;2022-12-07T01:49:58;98997.97;;;5.48;76.65
70343;BME280;57767;42.068;24.752;2022-12-07T01:51:05;99001.59;;;5.47;76.97
70343;BME280;57767;42.068;24.752;2022-12-07T01:52:25;99002.84;;;5.28;77.19
70343;BME280;57767;42.068;24.752;2022-12-07T01:53:29;99009.53;;;5.23;78.12
70343;BME280;57767;42.068;24.752;2022-12-07T01:54:33;99000.53;;;5.25;77.91
70343;BME280;57767;42.068;24.752;2022-12-07T01:55:40;99006.28;;;5.21;77.89
70343;BME280;57767;42.068;24.752;2022-12-07T01:56:48;98997.59;;;5.20;78.80
70343;BME280;57767;42.068;24.752;2022-12-07T01:57:53;99009.81;;;5.36;77.91
70343;BME280;57767;42.068;24.752;2022-12-07T01:58:56;99006.69;;;5.40;78.05
70343;BME280;57767;42.068;24.752;2022-12-07T02:00:00;98999.00;;;5.39;78.33
70343;BME280;57767;42.068;24.752;2022-12-07T02:01:03;99008.50;;;5.40;78.06
70343;BME280;57767;42.068;24.752;2022-12-07T02:02:20;99008.16;;;5.43;78.24
70343;BME280;57767;42.068;24.752;2022-12-07T02:03:32;99003.75;;;5.44;77.78
70343;BME280;57767;42.068;24.752;2022-12-07T02:04:36;99006.00;;;5.47;77.61
70343;BME280;57767;42.068;24.752;2022-12-07T02:05:40;99000.44;;;5.50;77.82
70343;BME280;57767;42.068;24.752;2022-12-07T02:06:44;99005.34;;;5.45;77.70
70343;BME280;57767;42.068;24.752;2022-12-07T02:07:47;98999.59;;;5.49;77.79
70343;BME280;57767;42.068;24.752;2022-12-07T02:08:50;98995.69;;;5.45;77.48
70343;BME280;57767;42.068;24.752;2022-12-07T02:09:53;98999.13;;;5.46;77.29
70343;BME280;57767;42.068;24.752;2022-12-07T02:10:55;99000.47;;;5.42;77.78
70343;BME280;57767;42.068;24.752;2022-12-07T02:11:57;98997.38;;;5.38;77.44
70343;BME280;57767;42.068;24.752;2022-12-07T02:13:10;99002.44;;;5.39;77.75
70343;BME280;57767;42.068;24.752;2022-12-07T02:14:12;98991.66;;;5.34;77.37
70343;BME280;57767;42.068;24.752;2022-12-07T02:15:14;98998.84;;;5.40;77.62
70343;BME280;57767;42.068;24.752;2022-12-07T02:20:38;99002.31;;;5.33;77.54
70343;BME280;57767;42.068;24.752;2022-12-07T02:23:07;98990.56;;;5.29;77.81
70343;BME280;57767;42.068;24.752;2022-12-07T02:28:37;98999.88;;;5.31;78.49
70343;BME280;57767;42.068;24.752;2022-12-07T02:30:01;98995.25;;;5.33;78.24
70343;BME280;57767;42.068;24.752;2022-12-07T02:31:09;98991.38;;;5.29;77.79
70343;BME280;57767;42.068;24.752;2022-12-07T02:32:23;98986.47;;;5.26;78.48
70343;BME280;57767;42.068;24.752;2022-12-07T02:33:36;98988.09;;;5.27;78.42
70343;BME280;57767;42.068;24.752;2022-12-07T02:34:52;98984.34;;;5.30;78.18
70343;BME280;57767;42.068;24.752;2022-12-07T02:36:10;98983.22;;;5.24;78.42
70343;BME280;57767;42.068;24.752;2022-12-07T02:37:47;98977.69;;;5.19;78.83
70343;BME280;57767;42.068;24.752;2022-12-07T02:40:12;98972.78;;;5.16;78.95
70343;BME280;57767;42.068;24.752;2022-12-07T02:41:26;98966.56;;;5.09;78.47
70343;BME280;57767;42.068;24.752;2022-12-07T02:42:36;98978.69;;;5.10;78.80
70343;BME280;57767;42.068;24.752;2022-12-07T02:43:43;98971.66;;;5.11;79.04
70343;BME280;57767;42.068;24.752;2022-12-07T02:44:47;98972.13;;;5.14;78.85
70343;BME280;57767;42.068;24.752;2022-12-07T02:45:51;98975.25;;;5.10;78.92
70343;BME280;57767;42.068;24.752;2022-12-07T02:46:55;98975.41;;;5.16;79.02
70343;BME280;57767;42.068;24.752;2022-12-07T02:48:00;98964.13;;;5.16;79.21
70343;BME280;57767;42.068;24.752;2022-12-07T02:49:02;98968.81;;;5.20;78.75
70343;BME280;57767;42.068;24.752;2022-12-07T02:50:06;98974.38;;;5.25;79.05
70343;BME280;57767;42.068;24.752;2022-12-07T02:51:08;98956.44;;;5.14;79.18
70343;BME280;57767;42.068;24.752;2022-12-07T02:52:09;98966.19;;;5.20;78.87
70343;BME280;57767;42.068;24.752;2022-12-07T02:54:32;98946.63;;;5.08;78.78
70343;BME280;57767;42.068;24.752;2022-12-07T02:55:40;98949.88;;;5.18;78.66
70343;BME280;57767;42.068;24.752;2022-12-07T02:56:46;98964.41;;;5.21;79.00
70343;BME280;57767;42.068;24.752;2022-12-07T03:00:20;98968.19;;;5.18;78.51
70343;BME280;57767;42.068;24.752;2022-12-07T03:01:44;98957.38;;;5.21;78.54
70343;BME280;57767;42.068;24.752;2022-12-07T03:03:00;98959.69;;;5.16;78.95
70343;BME280;57767;42.068;24.752;2022-12-07T03:07:24;98952.56;;;5.02;79.92
70343;BME280;57767;42.068;24.752;2022-12-07T03:12:10;98944.38;;;5.05;79.11
70343;BME280;57767;42.068;24.752;2022-12-07T03:13:21;98957.09;;;5.08;79.09
70343;BME280;57767;42.068;24.752;2022-12-07T03:14:30;98952.34;;;5.12;79.58
70343;BME280;57767;42.068;24.752;2022-12-07T03:15:43;98955.78;;;5.12;79.12
70343;BME280;57767;42.068;24.752;2022-12-07T03:16:53;98947.44;;;5.09;79.19
70343;BME280;57767;42.068;24.752;2022-12-07T03:17:59;98950.38;;;5.14;79.07
70343;BME280;57767;42.068;24.752;2022-12-07T03:19:08;98955.94;;;5.11;78.81
70343;BME280;57767;42.068;24.752;2022-12-07T03:20:13;98967.84;;;5.21;79.58
70343;BME280;57767;42.068;24.752;2022-12-07T03:21:23;98966.34;;;5.27;78.72
70343;BME280;57767;42.068;24.752;2022-12-07T03:22:29;98961.44;;;5.24;78.80
70343;BME280;57767;42.068;24.752;2022-12-07T03:23:35;98961.13;;;5.27;78.91
70343;BME280;57767;42.068;24.752;2022-12-07T03:24:44;98964.22;;;5.30;78.73
70343;BME280;57767;42.068;24.752;2022-12-07T03:25:53;98966.13;;;5.36;79.01
70343;BME280;57767;42.068;24.752;2022-12-07T03:27:08;98966.47;;;5.33;78.58
70343;BME280;57767;42.068;24.752;2022-12-07T03:28:13;98962.41;;;5.31;78.90
70343;BME280;57767;42.068;24.752;2022-12-07T03:29:25;98968.09;;;5.34;78.79
70343;BME280;57767;42.068;24.752;2022-12-07T03:30:37;98969.72;;;5.35;79.05
70343;BME280;57767;42.068;24.752;2022-12-07T03:31:45;98969.56;;;5.37;78.18
70343;BME280;57767;42.068;24.752;2022-12-07T03:34:02;98968.06;;;5.43;78.39
70343;BME280;57767;42.068;24.752;2022-12-07T03:36:13;98962.41;;;5.31;78.42
70343;BME280;57767;42.068;24.752;2022-12-07T03:37:26;98956.34;;;5.30;78.63
70343;BME280;57767;42.068;24.752;2022-12-07T03:38:39;98974.63;;;5.38;77.97
70343;BME280;57767;42.068;24.752;2022-12-07T03:41:09;98974.94;;;5.44;77.90
70343;BME280;57767;42.068;24.752;2022-12-07T03:42:13;98974.94;;;5.44;78.03
70343;BME280;57767;42.068;24.752;2022-12-07T03:43:15;98979.97;;;5.45;78.43
70343;BME280;57767;42.068;24.752;2022-12-07T03:44:18;98955.47;;;5.38;78.26
70343;BME280;57767;42.068;24.752;2022-12-07T03:45:23;98974.41;;;5.48;78.24
70343;BME280;57767;42.068;24.752;2022-12-07T03:46:53;98972.31;;;5.44;77.59
70343;BME280;57767;42.068;24.752;2022-12-07T03:48:06;98977.56;;;5.44;77.85
70343;BME280;57767;42.068;24.752;2022-12-07T03:53:33;98963.81;;;5.42;78.21
70343;BME280;57767;42.068;24.752;2022-12-07T03:54:40;98966.44;;;5.42;77.42
70343;BME280;57767;42.068;24.752;2022-12-07T03:55:44;98958.09;;;5.38;78.22
70343;BME280;57767;42.068;24.752;2022-12-07T03:56:48;98956.00;;;5.33;78.55
70343;BME280;57767;42.068;24.752;2022-12-07T03:57:54;98952.06;;;5.37;77.91
70343;BME280;57767;42.068;24.752;2022-12-07T03:58:56;98948.66;;;5.29;78.55
70343;BME280;57767;42.068;24.752;2022-12-07T03:59:58;98956.81;;;5.34;78.30
70343;BME280;57767;42.068;24.752;2022-12-07T04:01:02;98962.69;;;5.36;78.49
70343;BME280;57767;42.068;24.752;2022-12-07T04:02:05;98955.47;;;5.38;78.34
70343;BME280;57767;42.068;24.752;2022-12-07T04:03:07;98950.91;;;5.40;78.46
70343;BME280;57767;42.068;24.752;2022-12-07T04:04:09;98951.63;;;5.26;79.03
70343;BME280;57767;42.068;24.752;2022-12-07T04:05:11;98954.06;;;5.27;79.26
70343;BME280;57767;42.068;24.752;2022-12-07T04:06:13;98932.16;;;5.20;78.68
70343;BME280;57767;42.068;24.752;2022-12-07T04:07:15;98951.41;;;5.35;78.88
70343;BME280;57767;42.068;24.752;2022-12-07T04:08:16;98946.00;;;5.37;78.39
70343;BME280;57767;42.068;24.752;2022-12-07T04:09:18;98950.25;;;5.38;78.83
70343;BME280;57767;42.068;24.752;2022-12-07T04:10:20;98960.22;;;5.43;78.29
70343;BME280;57767;42.068;24.752;2022-12-07T04:11:22;98956.94;;;5.40;78.63
70343;BME280;57767;42.068;24.752;2022-12-07T04:12:24;98956.63;;;5.44;78.07
70343;BME280;57767;42.068;24.752;2022-12-07T04:13:26;98956.13;;;5.40;78.34
70343;BME280;57767;42.068;24.752;2022-12-07T04:14:27;98957.22;;;5.46;78.03
70343;BME280;57767;42.068;24.752;2022-12-07T04:15:29;98957.72;;;5.49;78.23
70343;BME280;57767;42.068;24.752;2022-12-07T04:16:31;98957.53;;;5.51;78.39
70343;BME280;57767;42.068;24.752;2022-12-07T04:17:32;98951.81;;;5.47;77.90
70343;BME280;57767;42.068;24.752;2022-12-07T04:18:34;98951.66;;;5.49;78.14
70343;BME280;57767;42.068;24.752;2022-12-07T04:19:36;98952.97;;;5.45;78.47
70343;BME280;57767;42.068;24.752;2022-12-07T04:20:38;98959.84;;;5.46;78.29
70343;BME280;57767;42.068;24.752;2022-12-07T04:21:39;98961.03;;;5.43;78.31
70343;BME280;57767;42.068;24.752;2022-12-07T04:22:41;98946.00;;;5.37;78.29
70343;BME280;57767;42.068;24.752;2022-12-07T04:23:43;98944.84;;;5.39;77.99
70343;BME280;57767;42.068;24.752;2022-12-07T04:24:44;98954.44;;;5.47;78.10
70343;BME280;57767;42.068;24.752;2022-12-07T04:25:48;98953.47;;;5.48;78.22
70343;BME280;57767;42.068;24.752;2022-12-07T04:26:50;98937.63;;;5.42;78.34
70343;BME280;57767;42.068;24.752;2022-12-07T04:27:52;98945.13;;;5.45;78.25
70343;BME280;57767;42.068;24.752;2022-12-07T04:28:54;98946.31;;;5.42;78.63
70343;BME280;57767;42.068;24.752;2022-12-07T04:29:56;98946.16;;;5.35;78.62
70343;BME280;57767;42.068;24.752;2022-12-07T04:30:58;98944.75;;;5.25;78.88
70343;BME280;57767;42.068;24.752;2022-12-07T04:31:59;98932.56;;;5.09;79.38
70343;BME280;57767;42.068;24.752;2022-12-07T04:33:01;98941.53;;;5.15;79.15
70343;BME280;57767;42.068;24.752;2022-12-07T04:34:03;98941.31;;;5.24;79.31
70343;BME280;57767;42.068;24.752;2022-12-07T04:35:05;98933.28;;;5.26;79.02
70343;BME280;57767;42.068;24.752;2022-12-07T04:36:07;98932.25;;;5.35;78.94
70343;BME280;57767;42.068;24.752;2022-12-07T04:37:09;98941.25;;;5.40;78.98
70343;BME280;57767;42.068;24.752;2022-12-07T04:38:11;98925.69;;;5.39;78.76
70343;BME280;57767;42.068;24.752;2022-12-07T04:39:21;98929.78;;;5.42;78.56
70343;BME280;57767;42.068;24.752;2022-12-07T04:40:23;98937.97;;;5.38;78.35
70343;BME280;57767;42.068;24.752;2022-12-07T04:41:25;98943.84;;;5.40;78.82
70343;BME280;57767;42.068;24.752;2022-12-07T04:42:30;98932.25;;;5.35;78.44
70343;BME280;57767;42.068;24.752;2022-12-07T04:43:33;98939.59;;;5.39;78.76
70343;BME280;57767;42.068;24.752;2022-12-07T04:44:35;98937.97;;;5.38;78.74
70343;BME280;57767;42.068;24.752;2022-12-07T04:45:37;98934.72;;;5.36;78.19
70343;BME280;57767;42.068;24.752;2022-12-07T04:46:38;98943.53;;;5.44;77.98
70343;BME280;57767;42.068;24.752;2022-12-07T04:47:40;98940.41;;;5.40;77.87
70343;BME280;57767;42.068;24.752;2022-12-07T04:48:42;98940.25;;;5.42;77.71
70343;BME280;57767;42.068;24.752;2022-12-07T04:49:43;98931.28;;;5.36;77.87
70343;BME280;57767;42.068;24.752;2022-12-07T04:50:48;98924.75;;;5.32;77.79
70343;BME280;57767;42.068;24.752;2022-12-07T04:51:51;98941.41;;;5.39;78.19
70343;BME280;57767;42.068;24.752;2022-12-07T04:52:53;98920.38;;;5.24;77.78
70343;BME280;57767;42.068;24.752;2022-12-07T04:53:55;98903.09;;;5.15;78.02
70343;BME280;57767;42.068;24.752;2022-12-07T04:54:57;98928.88;;;5.26;78.04
70343;BME280;57767;42.068;24.752;2022-12-07T04:55:58;98936.41;;;5.29;77.92
70343;BME280;57767;42.068;24.752;2022-12-07T04:57:02;98933.78;;;5.29;77.71
70343;BME280;57767;42.068;24.752;2022-12-07T04:58:04;98932.47;;;5.25;77.47
70343;BME280;57767;42.068;24.752;2022-12-07T04:59:06;98937.03;;;5.31;77.89
70343;BME280;57767;42.068;24.752;2022-12-07T05:00:08;98937.22;;;5.30;77.83
70343;BME280;57767;42.068;24.752;2022-12-07T05:01:10;98935.41;;;5.30;77.76
70343;BME280;57767;42.068;24.752;2022-12-07T05:02:12;98930.19;;;5.22;77.70
70343;BME280;57767;42.068;24.752;2022-12-07T05:03:13;98942.78;;;5.27;77.39
70343;BME280;57767;42.068;24.752;2022-12-07T05:04:15;98947.31;;;5.33;78.35
70343;BME280;57767;42.068;24.752;2022-12-07T05:05:17;98944.69;;;5.33;77.86
70343;BME280;57767;42.068;24.752;2022-12-07T05:06:19;98940.28;;;5.33;78.15
70343;BME280;57767;42.068;24.752;2022-12-07T05:07:21;98941.09;;;5.34;78.26
70343;BME280;57767;42.068;24.752;2022-12-07T05:08:22;98952.06;;;5.37;78.33
70343;BME280;57767;42.068;24.752;2022-12-07T05:09:24;98949.59;;;5.36;77.59
70343;BME280;57767;42.068;24.752;2022-12-07T05:10:26;98936.72;;;5.26;77.93
70343;BME280;57767;42.068;24.752;2022-12-07T05:11:28;98933.81;;;5.21;77.82
70343;BME280;57767;42.068;24.752;2022-12-07T05:12:41;98936.91;;;5.25;78.09
70343;BME280;57767;42.068;24.752;2022-12-07T05:13:43;98949.19;;;5.24;77.69
70343;BME280;57767;42.068;24.752;2022-12-07T05:14:45;98952.13;;;5.21;77.96
70343;BME280;57767;42.068;24.752;2022-12-07T05:15:47;98938.44;;;5.11;78.23
70343;BME280;57767;42.068;24.752;2022-12-07T05:16:50;98952.66;;;5.17;78.35
70343;BME280;57767;42.068;24.752;2022-12-07T05:17:52;98946.44;;;5.18;78.27
70343;BME280;57767;42.068;24.752;2022-12-07T05:18:54;98952.13;;;5.21;78.64
70343;BME280;57767;42.068;24.752;2022-12-07T05:19:56;98942.34;;;5.15;78.86
70343;BME280;57767;42.068;24.752;2022-12-07T05:20:58;98941.19;;;5.18;78.90
70343;BME280;57767;42.068;24.752;2022-12-07T05:21:59;98940.78;;;5.06;78.54
70343;BME280;57767;42.068;24.752;2022-12-07T05:23:01;98947.59;;;5.15;79.26
70343;BME280;57767;42.068;24.752;2022-12-07T05:24:03;98936.69;;;5.03;78.15
70343;BME280;57767;42.068;24.752;2022-12-07T05:25:05;98945.63;;;5.09;78.98
70343;BME280;57767;42.068;24.752;2022-12-07T05:26:08;98960.84;;;5.14;79.06
70343;BME280;57767;42.068;24.752;2022-12-07T05:27:09;98956.75;;;5.11;78.81
70343;BME280;57767;42.068;24.752;2022-12-07T05:28:11;98961.31;;;5.17;79.13
70343;BME280;57767;42.068;24.752;2022-12-07T05:29:15;98957.53;;;5.20;78.35
70343;BME280;57767;42.068;24.752;2022-12-07T05:30:17;98953.75;;;5.22;77.99
70343;BME280;57767;42.068;24.752;2022-12-07T05:31:19;98968.66;;;5.22;78.00
70343;BME280;57767;42.068;24.752;2022-12-07T05:32:21;98948.41;;;5.16;77.87
70343;BME280;57767;42.068;24.752;2022-12-07T05:33:22;98950.84;;;5.17;78.14
70343;BME280;57767;42.068;24.752;2022-12-07T05:34:24;98957.38;;;5.21;78.16
70343;BME280;57767;42.068;24.752;2022-12-07T05:35:26;98962.59;;;5.21;78.29
70343;BME280;57767;42.068;24.752;2022-12-07T05:36:27;98961.50;;;5.16;78.35
70343;BME280;57767;42.068;24.752;2022-12-07T05:37:30;98950.53;;;5.12;78.08
70343;BME280;57767;42.068;24.752;2022-12-07T05:38:32;98966.84;;;5.22;78.94
70343;BME280;57767;42.068;24.752;2022-12-07T05:39:34;98961.66;;;5.14;78.39
70343;BME280;57767;42.068;24.752;2022-12-07T05:40:36;98962.47;;;5.15;78.28
70343;BME280;57767;42.068;24.752;2022-12-07T05:41:38;98966.06;;;5.14;78.63
70343;BME280;57767;42.068;24.752;2022-12-07T05:42:58;98964.94;;;5.16;78.83
70343;BME280;57767;42.068;24.752;2022-12-07T05:44:05;98960.84;;;5.14;78.56
70343;BME280;57767;42.068;24.752;2022-12-07T05:45:08;98969.00;;;5.19;78.63
70343;BME280;57767;42.068;24.752;2022-12-07T05:46:10;98950.88;;;5.09;78.82
70343;BME280;57767;42.068;24.752;2022-12-07T05:47:13;98964.28;;;5.14;78.89
70343;BME280;57767;42.068;24.752;2022-12-07T05:48:15;98958.88;;;5.08;79.14
70343;BME280;57767;42.068;24.752;2022-12-07T05:49:17;98952.72;;;5.00;79.01
70343;BME280;57767;42.068;24.752;2022-12-07T05:50:19;98958.78;;;5.01;79.28
70343;BME280;57767;42.068;24.752;2022-12-07T05:51:21;98946.34;;;4.95;79.88
70343;BME280;57767;42.068;24.752;2022-12-07T05:52:23;98958.44;;;5.04;79.62
70343;BME280;57767;42.068;24.752;2022-12-07T05:53:25;98957.47;;;4.97;80.16
70343;BME280;57767;42.068;24.752;2022-12-07T05:54:27;98954.88;;;4.89;80.40
70343;BME280;57767;42.068;24.752;2022-12-07T05:55:28;98953.91;;;4.90;80.59
70343;BME280;57767;42.068;24.752;2022-12-07T05:56:30;98962.69;;;4.97;80.56
70343;BME280;57767;42.068;24.752;2022-12-07T05:57:32;98946.34;;;5.03;80.37
70343;BME280;57767;42.068;24.752;2022-12-07T05:58:34;98956.75;;;5.11;79.46
70343;BME280;57767;42.068;24.752;2022-12-07T05:59:54;98947.44;;;5.09;79.48
70343;BME280;57767;42.068;24.752;2022-12-07T06:00:56;98966.84;;;5.22;78.80
70343;BME280;57767;42.068;24.752;2022-12-07T06:02:04;98962.25;;;5.24;79.12
70343;BME280;57767;42.068;24.752;2022-12-07T06:03:06;98963.91;;;5.25;78.81
70343;BME280;57767;42.068;24.752;2022-12-07T06:04:08;98958.66;;;5.25;79.66
70343;BME280;57767;42.068;24.752;2022-12-07T06:05:10;98966.81;;;5.30;78.77
70343;BME280;57767;42.068;24.752;2022-12-07T06:06:11;98962.84;;;5.34;79.40
70343;BME280;57767;42.068;24.752;2022-12-07T06:07:15;98964.16;;;5.38;78.81
70343;BME280;57767;42.068;24.752;2022-12-07T06:08:17;98964.16;;;5.38;79.42
70343;BME280;57767;42.068;24.752;2022-12-07T06:09:20;98970.69;;;5.43;78.59
70343;BME280;57767;42.068;24.752;2022-12-07T06:10:22;98977.19;;;5.47;78.82
70343;BME280;57767;42.068;24.752;2022-12-07T06:11:24;98978.00;;;5.47;78.17